sensor_id;sensor_type;location;lat;lon;timestamp;P1;durP1;ratioP1;P2;durP2;ratioP2
21665;SDS011;10994;45.486;9.190;2022-11-20T00:00:48;17.77;;;12.20;;
21665;SDS011;10994;45.486;9.190;2022-11-20T00:03:14;15.50;;;10.90;;
21665;SDS011;10994;45.486;9.190;2022-11-20T00:05:40;16.53;;;11.77;;
21665;SDS011;10994;45.486;9.190;2022-11-20T00:08:06;13.87;;;10.20;;
21665;SDS011;10994;45.486;9.190;2022-11-20T00:10:31;14.50;;;11.07;;
21665;SDS011;10994;45.486;9.190;2022-11-20T00:12:58;17.33;;;12.23;;
21665;SDS011;10994;45.486;9.190;2022-11-20T00:15:23;14.70;;;10.93;;
21665;SDS011;10994;45.486;9.190;2022-11-20T00:17:49;16.80;;;11.37;;
21665;SDS011;10994;45.486;9.190;2022-11-20T00:20:15;16.03;;;11.57;;
21665;SDS011;10994;45.486;9.190;2022-11-20T00:22:41;14.60;;;10.43;;
21665;SDS011;10994;45.486;9.190;2022-11-20T00:25:07;16.03;;;11.63;;
21665;SDS011;10994;45.486;9.190;2022-11-20T00:27:32;17.23;;;11.73;;
21665;SDS011;10994;45.486;9.190;2022-11-20T00:29:58;15.13;;;11.80;;
21665;SDS011;10994;45.486;9.190;2022-11-20T00:32:24;21.47;;;12.53;;
21665;SDS011;10994;45.486;9.190;2022-11-20T00:34:50;17.47;;;12.60;;
21665;SDS011;10994;45.486;9.190;2022-11-20T00:37:15;18.60;;;12.93;;
21665;SDS011;10994;45.486;9.190;2022-11-20T00:39:41;17.80;;;12.50;;
21665;SDS011;10994;45.486;9.190;2022-11-20T00:42:07;19.50;;;13.17;;
21665;SDS011;10994;45.486;9.190;2022-11-20T00:44:32;14.00;;;11.33;;
21665;SDS011;10994;45.486;9.190;2022-11-20T00:46:58;17.67;;;11.70;;
21665;SDS011;10994;45.486;9.190;2022-11-20T00:49:23;19.40;;;12.83;;
21665;SDS011;10994;45.486;9.190;2022-11-20T00:51:49;18.50;;;12.80;;
21665;SDS011;10994;45.486;9.190;2022-11-20T00:54:15;16.93;;;12.03;;
21665;SDS011;10994;45.486;9.190;2022-11-20T00:56:40;17.07;;;12.60;;
21665;SDS011;10994;45.486;9.190;2022-11-20T00:59:08;18.27;;;13.23;;
21665;SDS011;10994;45.486;9.190;2022-11-20T01:01:34;17.93;;;12.20;;
21665;SDS011;10994;45.486;9.190;2022-11-20T01:04:01;18.10;;;12.10;;
21665;SDS011;10994;45.486;9.190;2022-11-20T01:06:31;17.10;;;13.47;;
21665;SDS011;10994;45.486;9.190;2022-11-20T01:08:58;19.70;;;13.30;;
21665;SDS011;10994;45.486;9.190;2022-11-20T01:11:29;18.87;;;13.20;;
21665;SDS011;10994;45.486;9.190;2022-11-20T01:13:55;21.60;;;14.33;;
21665;SDS011;10994;45.486;9.190;2022-11-20T01:16:23;20.90;;;13.53;;
21665;SDS011;10994;45.486;9.190;2022-11-20T01:18:51;19.60;;;13.73;;
21665;SDS011;10994;45.486;9.190;2022-11-20T01:21:18;19.83;;;13.93;;
21665;SDS011;10994;45.486;9.190;2022-11-20T01:23:45;20.90;;;14.70;;
21665;SDS011;10994;45.486;9.190;2022-11-20T01:26:12;19.77;;;14.63;;
21665;SDS011;10994;45.486;9.190;2022-11-20T01:28:39;19.83;;;13.67;;
21665;SDS011;10994;45.486;9.190;2022-11-20T01:33:44;20.83;;;14.17;;
21665;SDS011;10994;45.486;9.190;2022-11-20T01:36:11;16.30;;;12.77;;
21665;SDS011;10994;45.486;9.190;2022-11-20T01:38:37;21.37;;;14.03;;
21665;SDS011;10994;45.486;9.190;2022-11-20T01:41:03;22.87;;;14.20;;
21665;SDS011;10994;45.486;9.190;2022-11-20T01:43:29;19.57;;;14.47;;
21665;SDS011;10994;45.486;9.190;2022-11-20T01:45:56;21.07;;;14.00;;
21665;SDS011;10994;45.486;9.190;2022-11-20T01:48:24;19.77;;;13.77;;
21665;SDS011;10994;45.486;9.190;2022-11-20T01:50:51;20.60;;;14.63;;
21665;SDS011;10994;45.486;9.190;2022-11-20T01:53:18;20.73;;;14.67;;
21665;SDS011;10994;45.486;9.190;2022-11-20T01:55:48;22.97;;;15.07;;
21665;SDS011;10994;45.486;9.190;2022-11-20T01:58:15;20.77;;;14.47;;
21665;SDS011;10994;45.486;9.190;2022-11-20T02:00:42;20.73;;;14.47;;
21665;SDS011;10994;45.486;9.190;2022-11-20T02:03:09;21.43;;;14.80;;
21665;SDS011;10994;45.486;9.190;2022-11-20T02:08:03;19.77;;;15.57;;
21665;SDS011;10994;45.486;9.190;2022-11-20T02:10:30;20.57;;;14.87;;
21665;SDS011;10994;45.486;9.190;2022-11-20T02:12:57;28.43;;;19.00;;
21665;SDS011;10994;45.486;9.190;2022-11-20T02:15:42;23.23;;;14.77;;
21665;SDS011;10994;45.486;9.190;2022-11-20T02:18:09;22.20;;;15.47;;
21665;SDS011;10994;45.486;9.190;2022-11-20T02:20:35;22.63;;;15.40;;
21665;SDS011;10994;45.486;9.190;2022-11-20T02:23:08;18.20;;;14.00;;
21665;SDS011;10994;45.486;9.190;2022-11-20T02:25:36;16.93;;;12.47;;
21665;SDS011;10994;45.486;9.190;2022-11-20T02:28:03;18.60;;;12.77;;
21665;SDS011;10994;45.486;9.190;2022-11-20T02:30:30;16.57;;;12.47;;
21665;SDS011;10994;45.486;9.190;2022-11-20T02:32:57;19.67;;;13.67;;
21665;SDS011;10994;45.486;9.190;2022-11-20T02:37:59;18.47;;;12.90;;
21665;SDS011;10994;45.486;9.190;2022-11-20T02:40:26;18.20;;;13.37;;
21665;SDS011;10994;45.486;9.190;2022-11-20T02:42:53;18.87;;;13.37;;
21665;SDS011;10994;45.486;9.190;2022-11-20T02:45:19;22.67;;;15.33;;
21665;SDS011;10994;45.486;9.190;2022-11-20T02:47:46;21.83;;;15.03;;
21665;SDS011;10994;45.486;9.190;2022-11-20T02:50:12;18.17;;;13.87;;
21665;SDS011;10994;45.486;9.190;2022-11-20T02:52:38;21.70;;;15.13;;
21665;SDS011;10994;45.486;9.190;2022-11-20T02:55:04;19.93;;;14.07;;
21665;SDS011;10994;45.486;9.190;2022-11-20T02:57:30;21.23;;;13.97;;
21665;SDS011;10994;45.486;9.190;2022-11-20T02:59:56;20.60;;;13.87;;
21665;SDS011;10994;45.486;9.190;2022-11-20T03:02:22;19.93;;;13.23;;
21665;SDS011;10994;45.486;9.190;2022-11-20T03:04:48;20.23;;;14.17;;
21665;SDS011;10994;45.486;9.190;2022-11-20T03:07:14;17.57;;;13.33;;
21665;SDS011;10994;45.486;9.190;2022-11-20T03:09:40;15.83;;;12.80;;
21665;SDS011;10994;45.486;9.190;2022-11-20T03:12:07;16.27;;;11.80;;
21665;SDS011;10994;45.486;9.190;2022-11-20T03:14:34;14.57;;;11.40;;
21665;SDS011;10994;45.486;9.190;2022-11-20T03:17:00;16.30;;;11.63;;
21665;SDS011;10994;45.486;9.190;2022-11-20T03:19:26;19.50;;;11.93;;
21665;SDS011;10994;45.486;9.190;2022-11-20T03:21:52;16.33;;;11.40;;
21665;SDS011;10994;45.486;9.190;2022-11-20T03:24:18;16.93;;;11.50;;
21665;SDS011;10994;45.486;9.190;2022-11-20T03:26:44;17.43;;;11.33;;
21665;SDS011;10994;45.486;9.190;2022-11-20T03:29:10;14.37;;;11.40;;
21665;SDS011;10994;45.486;9.190;2022-11-20T03:31:37;14.50;;;10.63;;
21665;SDS011;10994;45.486;9.190;2022-11-20T03:34:05;14.17;;;10.80;;
21665;SDS011;10994;45.486;9.190;2022-11-20T03:36:32;15.90;;;10.73;;
21665;SDS011;10994;45.486;9.190;2022-11-20T03:38:58;14.27;;;10.80;;
21665;SDS011;10994;45.486;9.190;2022-11-20T03:41:25;12.37;;;9.13;;
21665;SDS011;10994;45.486;9.190;2022-11-20T03:43:52;13.70;;;9.47;;
21665;SDS011;10994;45.486;9.190;2022-11-20T03:46:18;12.20;;;9.53;;
21665;SDS011;10994;45.486;9.190;2022-11-20T03:48:44;11.97;;;9.50;;
21665;SDS011;10994;45.486;9.190;2022-11-20T03:51:12;12.40;;;9.27;;
21665;SDS011;10994;45.486;9.190;2022-11-20T03:53:39;14.97;;;9.67;;
21665;SDS011;10994;45.486;9.190;2022-11-20T03:56:05;11.93;;;9.50;;
21665;SDS011;10994;45.486;9.190;2022-11-20T03:58:32;12.10;;;9.17;;
21665;SDS011;10994;45.486;9.190;2022-11-20T04:01:04;10.87;;;8.10;;
21665;SDS011;10994;45.486;9.190;2022-11-20T04:03:33;10.63;;;8.93;;
21665;SDS011;10994;45.486;9.190;2022-11-20T04:06:19;13.53;;;9.33;;
21665;SDS011;10994;45.486;9.190;2022-11-20T04:08:47;10.10;;;8.30;;
21665;SDS011;10994;45.486;9.190;2022-11-20T04:11:17;9.80;;;8.00;;
21665;SDS011;10994;45.486;9.190;2022-11-20T04:13:48;12.40;;;8.63;;
21665;SDS011;10994;45.486;9.190;2022-11-20T04:16:15;13.73;;;11.10;;
21665;SDS011;10994;45.486;9.190;2022-11-20T04:18:42;13.80;;;10.93;;
21665;SDS011;10994;45.486;9.190;2022-11-20T04:21:08;16.53;;;11.00;;
21665;SDS011;10994;45.486;9.190;2022-11-20T04:23:34;15.23;;;11.07;;
21665;SDS011;10994;45.486;9.190;2022-11-20T04:26:00;14.47;;;10.77;;
21665;SDS011;10994;45.486;9.190;2022-11-20T04:28:34;15.03;;;10.37;;
21665;SDS011;10994;45.486;9.190;2022-11-20T04:31:10;12.67;;;10.97;;
21665;SDS011;10994;45.486;9.190;2022-11-20T04:33:38;13.83;;;11.00;;
21665;SDS011;10994;45.486;9.190;2022-11-20T04:36:05;13.77;;;11.00;;
21665;SDS011;10994;45.486;9.190;2022-11-20T04:38:32;12.77;;;10.10;;
21665;SDS011;10994;45.486;9.190;2022-11-20T04:41:02;13.40;;;10.13;;
21665;SDS011;10994;45.486;9.190;2022-11-20T04:43:29;14.37;;;10.67;;
21665;SDS011;10994;45.486;9.190;2022-11-20T04:45:56;14.43;;;9.97;;
21665;SDS011;10994;45.486;9.190;2022-11-20T04:48:23;13.40;;;10.70;;
21665;SDS011;10994;45.486;9.190;2022-11-20T04:50:49;13.43;;;9.90;;
21665;SDS011;10994;45.486;9.190;2022-11-20T04:53:15;11.23;;;8.80;;
21665;SDS011;10994;45.486;9.190;2022-11-20T04:55:41;14.27;;;9.20;;
21665;SDS011;10994;45.486;9.190;2022-11-20T04:58:06;14.90;;;10.50;;
21665;SDS011;10994;45.486;9.190;2022-11-20T05:00:32;11.87;;;9.63;;
21665;SDS011;10994;45.486;9.190;2022-11-20T05:02:58;12.57;;;9.53;;
21665;SDS011;10994;45.486;9.190;2022-11-20T05:05:23;9.53;;;8.20;;
21665;SDS011;10994;45.486;9.190;2022-11-20T05:07:49;9.13;;;7.60;;
21665;SDS011;10994;45.486;9.190;2022-11-20T05:10:15;11.73;;;8.27;;
21665;SDS011;10994;45.486;9.190;2022-11-20T05:12:40;17.10;;;9.13;;
21665;SDS011;10994;45.486;9.190;2022-11-20T05:15:06;11.17;;;8.00;;
21665;SDS011;10994;45.486;9.190;2022-11-20T05:17:33;10.83;;;6.77;;
21665;SDS011;10994;45.486;9.190;2022-11-20T05:19:58;12.00;;;8.90;;
21665;SDS011;10994;45.486;9.190;2022-11-20T05:22:24;10.87;;;8.50;;
21665;SDS011;10994;45.486;9.190;2022-11-20T05:24:50;11.07;;;8.43;;
21665;SDS011;10994;45.486;9.190;2022-11-20T05:27:15;7.90;;;6.53;;
21665;SDS011;10994;45.486;9.190;2022-11-20T05:29:41;10.17;;;7.90;;
21665;SDS011;10994;45.486;9.190;2022-11-20T05:32:06;10.13;;;8.07;;
21665;SDS011;10994;45.486;9.190;2022-11-20T05:34:34;14.10;;;8.60;;
21665;SDS011;10994;45.486;9.190;2022-11-20T05:37:01;7.43;;;6.43;;
21665;SDS011;10994;45.486;9.190;2022-11-20T05:39:27;10.50;;;6.80;;
21665;SDS011;10994;45.486;9.190;2022-11-20T05:41:52;8.80;;;6.50;;
21665;SDS011;10994;45.486;9.190;2022-11-20T05:44:38;8.40;;;6.23;;
21665;SDS011;10994;45.486;9.190;2022-11-20T05:47:04;11.07;;;7.73;;
21665;SDS011;10994;45.486;9.190;2022-11-20T05:49:30;10.73;;;8.17;;
21665;SDS011;10994;45.486;9.190;2022-11-20T05:51:56;10.43;;;8.40;;
21665;SDS011;10994;45.486;9.190;2022-11-20T05:54:22;10.53;;;8.60;;
21665;SDS011;10994;45.486;9.190;2022-11-20T05:56:47;10.30;;;8.73;;
21665;SDS011;10994;45.486;9.190;2022-11-20T05:59:13;13.00;;;9.30;;
21665;SDS011;10994;45.486;9.190;2022-11-20T06:01:39;10.50;;;8.50;;
21665;SDS011;10994;45.486;9.190;2022-11-20T06:04:04;10.23;;;8.70;;
21665;SDS011;10994;45.486;9.190;2022-11-20T06:06:30;11.33;;;8.13;;
21665;SDS011;10994;45.486;9.190;2022-11-20T06:08:56;10.90;;;8.20;;
21665;SDS011;10994;45.486;9.190;2022-11-20T06:11:24;9.83;;;8.03;;
21665;SDS011;10994;45.486;9.190;2022-11-20T06:13:50;12.33;;;8.83;;
21665;SDS011;10994;45.486;9.190;2022-11-20T06:16:17;11.10;;;8.30;;
21665;SDS011;10994;45.486;9.190;2022-11-20T06:18:44;10.17;;;7.83;;
21665;SDS011;10994;45.486;9.190;2022-11-20T06:21:20;10.53;;;8.30;;
21665;SDS011;10994;45.486;9.190;2022-11-20T06:23:48;12.20;;;7.93;;
21665;SDS011;10994;45.486;9.190;2022-11-20T06:26:15;9.93;;;8.10;;
21665;SDS011;10994;45.486;9.190;2022-11-20T06:28:45;10.53;;;7.60;;
21665;SDS011;10994;45.486;9.190;2022-11-20T06:31:12;10.87;;;7.90;;
21665;SDS011;10994;45.486;9.190;2022-11-20T06:33:39;11.37;;;8.00;;
21665;SDS011;10994;45.486;9.190;2022-11-20T06:36:06;9.93;;;7.93;;
21665;SDS011;10994;45.486;9.190;2022-11-20T06:38:32;10.80;;;7.63;;
21665;SDS011;10994;45.486;9.190;2022-11-20T06:40:57;9.13;;;7.10;;
21665;SDS011;10994;45.486;9.190;2022-11-20T06:43:23;9.07;;;6.60;;
21665;SDS011;10994;45.486;9.190;2022-11-20T06:45:53;11.20;;;6.33;;
21665;SDS011;10994;45.486;9.190;2022-11-20T06:48:19;9.73;;;6.13;;
21665;SDS011;10994;45.486;9.190;2022-11-20T06:50:45;8.13;;;5.87;;
21665;SDS011;10994;45.486;9.190;2022-11-20T06:53:11;7.63;;;6.17;;
21665;SDS011;10994;45.486;9.190;2022-11-20T06:55:36;6.40;;;4.90;;
21665;SDS011;10994;45.486;9.190;2022-11-20T06:58:06;7.13;;;5.40;;
21665;SDS011;10994;45.486;9.190;2022-11-20T07:00:32;7.70;;;6.00;;
21665;SDS011;10994;45.486;9.190;2022-11-20T07:02:58;8.20;;;5.63;;
21665;SDS011;10994;45.486;9.190;2022-11-20T07:05:27;9.17;;;6.10;;
21665;SDS011;10994;45.486;9.190;2022-11-20T07:07:55;6.43;;;5.20;;
21665;SDS011;10994;45.486;9.190;2022-11-20T07:10:21;5.70;;;5.10;;
21665;SDS011;10994;45.486;9.190;2022-11-20T07:12:50;6.33;;;4.73;;
21665;SDS011;10994;45.486;9.190;2022-11-20T07:15:20;6.47;;;5.10;;
21665;SDS011;10994;45.486;9.190;2022-11-20T07:17:47;6.87;;;5.53;;
21665;SDS011;10994;45.486;9.190;2022-11-20T07:20:13;7.40;;;5.60;;
21665;SDS011;10994;45.486;9.190;2022-11-20T07:22:39;8.60;;;5.60;;
21665;SDS011;10994;45.486;9.190;2022-11-20T07:25:05;5.60;;;4.83;;
21665;SDS011;10994;45.486;9.190;2022-11-20T07:27:31;5.83;;;5.07;;
21665;SDS011;10994;45.486;9.190;2022-11-20T07:29:57;8.33;;;5.23;;
21665;SDS011;10994;45.486;9.190;2022-11-20T07:32:23;7.60;;;5.83;;
21665;SDS011;10994;45.486;9.190;2022-11-20T07:34:49;5.83;;;5.07;;
21665;SDS011;10994;45.486;9.190;2022-11-20T07:37:15;7.50;;;5.87;;
21665;SDS011;10994;45.486;9.190;2022-11-20T07:39:41;6.77;;;5.10;;
21665;SDS011;10994;45.486;9.190;2022-11-20T07:42:07;8.37;;;5.70;;
21665;SDS011;10994;45.486;9.190;2022-11-20T07:44:36;8.77;;;5.70;;
21665;SDS011;10994;45.486;9.190;2022-11-20T07:47:02;5.70;;;4.60;;
21665;SDS011;10994;45.486;9.190;2022-11-20T07:49:27;8.47;;;6.97;;
21665;SDS011;10994;45.486;9.190;2022-11-20T07:51:53;7.83;;;5.93;;
21665;SDS011;10994;45.486;9.190;2022-11-20T07:54:21;7.43;;;6.47;;
21665;SDS011;10994;45.486;9.190;2022-11-20T07:56:48;8.97;;;5.67;;
21665;SDS011;10994;45.486;9.190;2022-11-20T07:59:14;9.03;;;5.97;;
21665;SDS011;10994;45.486;9.190;2022-11-20T08:01:41;6.83;;;5.70;;
21665;SDS011;10994;45.486;9.190;2022-11-20T08:04:07;7.00;;;6.10;;
21665;SDS011;10994;45.486;9.190;2022-11-20T08:06:33;8.27;;;6.33;;
21665;SDS011;10994;45.486;9.190;2022-11-20T08:08:59;7.23;;;5.63;;
21665;SDS011;10994;45.486;9.190;2022-11-20T08:11:25;9.40;;;6.20;;
21665;SDS011;10994;45.486;9.190;2022-11-20T08:14:09;7.10;;;6.10;;
21665;SDS011;10994;45.486;9.190;2022-11-20T08:16:42;9.27;;;6.23;;
21665;SDS011;10994;45.486;9.190;2022-11-20T08:19:09;9.97;;;5.97;;
21665;SDS011;10994;45.486;9.190;2022-11-20T08:21:35;8.47;;;6.47;;
21665;SDS011;10994;45.486;9.190;2022-11-20T08:24:01;9.97;;;6.47;;
21665;SDS011;10994;45.486;9.190;2022-11-20T08:26:27;8.27;;;6.57;;
21665;SDS011;10994;45.486;9.190;2022-11-20T08:28:53;6.97;;;5.70;;
21665;SDS011;10994;45.486;9.190;2022-11-20T08:31:26;6.97;;;5.80;;
21665;SDS011;10994;45.486;9.190;2022-11-20T08:33:52;8.37;;;6.87;;
21665;SDS011;10994;45.486;9.190;2022-11-20T08:36:19;8.53;;;6.30;;
21665;SDS011;10994;45.486;9.190;2022-11-20T08:38:49;8.60;;;6.47;;
21665;SDS011;10994;45.486;9.190;2022-11-20T08:41:16;8.37;;;5.70;;
21665;SDS011;10994;45.486;9.190;2022-11-20T08:43:52;8.50;;;5.93;;
21665;SDS011;10994;45.486;9.190;2022-11-20T08:46:20;6.50;;;5.00;;
21665;SDS011;10994;45.486;9.190;2022-11-20T08:48:46;6.07;;;4.73;;
21665;SDS011;10994;45.486;9.190;2022-11-20T08:51:11;7.50;;;5.03;;
21665;SDS011;10994;45.486;9.190;2022-11-20T08:53:37;8.20;;;5.53;;
21665;SDS011;10994;45.486;9.190;2022-11-20T08:56:04;5.77;;;5.03;;
21665;SDS011;10994;45.486;9.190;2022-11-20T08:58:30;6.90;;;4.80;;
21665;SDS011;10994;45.486;9.190;2022-11-20T09:00:56;5.40;;;4.17;;
21665;SDS011;10994;45.486;9.190;2022-11-20T09:03:22;6.57;;;4.73;;
21665;SDS011;10994;45.486;9.190;2022-11-20T09:05:48;5.17;;;4.33;;
21665;SDS011;10994;45.486;9.190;2022-11-20T09:08:13;4.63;;;4.03;;
21665;SDS011;10994;45.486;9.190;2022-11-20T09:10:39;5.77;;;4.07;;
21665;SDS011;10994;45.486;9.190;2022-11-20T09:13:05;4.67;;;3.93;;
21665;SDS011;10994;45.486;9.190;2022-11-20T09:15:31;9.47;;;4.10;;
21665;SDS011;10994;45.486;9.190;2022-11-20T09:17:58;4.63;;;3.67;;
21665;SDS011;10994;45.486;9.190;2022-11-20T09:20:25;5.10;;;3.53;;
21665;SDS011;10994;45.486;9.190;2022-11-20T09:22:52;5.30;;;4.30;;
21665;SDS011;10994;45.486;9.190;2022-11-20T09:25:17;12.40;;;5.00;;
21665;SDS011;10994;45.486;9.190;2022-11-20T09:27:43;5.90;;;4.97;;
21665;SDS011;10994;45.486;9.190;2022-11-20T09:30:11;7.60;;;5.33;;
21665;SDS011;10994;45.486;9.190;2022-11-20T09:32:41;7.77;;;4.73;;
21665;SDS011;10994;45.486;9.190;2022-11-20T09:35:07;6.80;;;4.43;;
21665;SDS011;10994;45.486;9.190;2022-11-20T09:37:33;5.27;;;3.87;;
21665;SDS011;10994;45.486;9.190;2022-11-20T09:39:59;6.23;;;5.13;;
21665;SDS011;10994;45.486;9.190;2022-11-20T09:45:16;5.10;;;4.33;;
21665;SDS011;10994;45.486;9.190;2022-11-20T09:48:05;6.73;;;4.67;;
21665;SDS011;10994;45.486;9.190;2022-11-20T09:53:28;5.73;;;4.93;;
21665;SDS011;10994;45.486;9.190;2022-11-20T09:56:20;7.00;;;5.53;;
21665;SDS011;10994;45.486;9.190;2022-11-20T09:58:53;6.63;;;5.33;;
21665;SDS011;10994;45.486;9.190;2022-11-20T10:01:23;7.97;;;6.57;;
21665;SDS011;10994;45.486;9.190;2022-11-20T10:04:03;9.87;;;7.97;;
21665;SDS011;10994;45.486;9.190;2022-11-20T10:06:44;8.60;;;7.53;;
21665;SDS011;10994;45.486;9.190;2022-11-20T10:09:21;10.90;;;7.90;;
21665;SDS011;10994;45.486;9.190;2022-11-20T10:12:17;9.73;;;7.80;;
21665;SDS011;10994;45.486;9.190;2022-11-20T10:15:20;12.57;;;8.13;;
21665;SDS011;10994;45.486;9.190;2022-11-20T10:23:33;10.87;;;8.63;;
21665;SDS011;10994;45.486;9.190;2022-11-20T10:26:03;11.00;;;8.23;;
21665;SDS011;10994;45.486;9.190;2022-11-20T10:34:00;11.23;;;8.97;;
21665;SDS011;10994;45.486;9.190;2022-11-20T10:36:32;10.70;;;8.37;;
21665;SDS011;10994;45.486;9.190;2022-11-20T10:42:11;9.23;;;7.50;;
21665;SDS011;10994;45.486;9.190;2022-11-20T10:44:42;9.93;;;7.97;;
21665;SDS011;10994;45.486;9.190;2022-11-20T10:47:25;11.07;;;8.00;;
21665;SDS011;10994;45.486;9.190;2022-11-20T10:49:54;9.57;;;7.30;;
21665;SDS011;10994;45.486;9.190;2022-11-20T10:52:32;7.70;;;6.40;;
21665;SDS011;10994;45.486;9.190;2022-11-20T10:55:24;8.87;;;7.20;;
21665;SDS011;10994;45.486;9.190;2022-11-20T10:58:17;8.70;;;7.30;;
21665;SDS011;10994;45.486;9.190;2022-11-20T11:01:02;10.13;;;6.90;;
21665;SDS011;10994;45.486;9.190;2022-11-20T11:03:30;7.67;;;6.80;;
21665;SDS011;10994;45.486;9.190;2022-11-20T11:09:00;7.07;;;6.37;;
21665;SDS011;10994;45.486;9.190;2022-11-20T11:11:30;8.67;;;6.73;;
21665;SDS011;10994;45.486;9.190;2022-11-20T11:14:19;7.90;;;6.80;;
21665;SDS011;10994;45.486;9.190;2022-11-20T11:16:52;9.13;;;6.43;;
21665;SDS011;10994;45.486;9.190;2022-11-20T11:19:20;9.67;;;7.93;;
21665;SDS011;10994;45.486;9.190;2022-11-20T11:27:11;9.40;;;6.57;;
21665;SDS011;10994;45.486;9.190;2022-11-20T11:29:38;8.47;;;6.70;;
21665;SDS011;10994;45.486;9.190;2022-11-20T11:32:04;6.93;;;6.17;;
21665;SDS011;10994;45.486;9.190;2022-11-20T11:34:32;6.90;;;6.03;;
21665;SDS011;10994;45.486;9.190;2022-11-20T11:37:00;7.07;;;6.13;;
21665;SDS011;10994;45.486;9.190;2022-11-20T11:39:28;9.17;;;5.57;;
21665;SDS011;10994;45.486;9.190;2022-11-20T11:41:56;7.10;;;6.30;;
21665;SDS011;10994;45.486;9.190;2022-11-20T11:44:32;7.07;;;6.17;;
21665;SDS011;10994;45.486;9.190;2022-11-20T11:47:25;9.00;;;7.37;;
21665;SDS011;10994;45.486;9.190;2022-11-20T11:55:43;9.30;;;7.50;;
21665;SDS011;10994;45.486;9.190;2022-11-20T12:03:43;10.40;;;7.53;;
21665;SDS011;10994;45.486;9.190;2022-11-20T12:06:16;7.80;;;7.00;;
21665;SDS011;10994;45.486;9.190;2022-11-20T12:11:43;9.57;;;7.90;;
21665;SDS011;10994;45.486;9.190;2022-11-20T12:16:51;12.33;;;7.47;;
21665;SDS011;10994;45.486;9.190;2022-11-20T12:19:18;10.60;;;8.10;;
21665;SDS011;10994;45.486;9.190;2022-11-20T12:21:55;10.70;;;7.93;;
21665;SDS011;10994;45.486;9.190;2022-11-20T12:30:08;10.07;;;6.90;;
21665;SDS011;10994;45.486;9.190;2022-11-20T12:40:43;10.13;;;6.53;;
21665;SDS011;10994;45.486;9.190;2022-11-20T12:43:26;8.70;;;6.63;;
21665;SDS011;10994;45.486;9.190;2022-11-20T12:51:45;7.90;;;6.30;;
21665;SDS011;10994;45.486;9.190;2022-11-20T12:54:34;7.90;;;6.47;;
21665;SDS011;10994;45.486;9.190;2022-11-20T13:05:46;9.00;;;5.80;;
21665;SDS011;10994;45.486;9.190;2022-11-20T13:08:40;10.40;;;6.93;;
21665;SDS011;10994;45.486;9.190;2022-11-20T13:11:09;9.73;;;6.07;;
21665;SDS011;10994;45.486;9.190;2022-11-20T13:18:42;7.60;;;5.63;;
21665;SDS011;10994;45.486;9.190;2022-11-20T13:21:14;6.83;;;5.40;;
21665;SDS011;10994;45.486;9.190;2022-11-20T13:23:47;9.63;;;6.70;;
21665;SDS011;10994;45.486;9.190;2022-11-20T13:26:20;10.57;;;8.17;;
21665;SDS011;10994;45.486;9.190;2022-11-20T13:31:43;7.40;;;5.23;;
21665;SDS011;10994;45.486;9.190;2022-11-20T13:34:12;6.83;;;4.57;;
21665;SDS011;10994;45.486;9.190;2022-11-20T13:36:49;5.53;;;4.17;;
21665;SDS011;10994;45.486;9.190;2022-11-20T13:42:02;4.90;;;4.13;;
21665;SDS011;10994;45.486;9.190;2022-11-20T13:44:38;5.20;;;3.80;;
21665;SDS011;10994;45.486;9.190;2022-11-20T13:49:46;4.80;;;4.23;;
21665;SDS011;10994;45.486;9.190;2022-11-20T13:59:58;5.77;;;4.17;;
21665;SDS011;10994;45.486;9.190;2022-11-20T14:02:42;5.67;;;4.13;;
21665;SDS011;10994;45.486;9.190;2022-11-20T14:05:19;4.47;;;3.90;;
21665;SDS011;10994;45.486;9.190;2022-11-20T14:07:55;4.63;;;3.50;;
21665;SDS011;10994;45.486;9.190;2022-11-20T14:12:51;5.23;;;3.70;;
21665;SDS011;10994;45.486;9.190;2022-11-20T14:15:24;3.17;;;2.87;;
21665;SDS011;10994;45.486;9.190;2022-11-20T14:17:50;4.27;;;3.03;;
21665;SDS011;10994;45.486;9.190;2022-11-20T14:20:15;4.73;;;3.10;;
21665;SDS011;10994;45.486;9.190;2022-11-20T14:22:51;3.27;;;2.90;;
21665;SDS011;10994;45.486;9.190;2022-11-20T14:25:19;5.27;;;2.50;;
21665;SDS011;10994;45.486;9.190;2022-11-20T14:27:52;2.90;;;2.03;;
21665;SDS011;10994;45.486;9.190;2022-11-20T14:30:21;3.60;;;2.17;;
21665;SDS011;10994;45.486;9.190;2022-11-20T14:32:49;2.77;;;2.17;;
21665;SDS011;10994;45.486;9.190;2022-11-20T14:35:26;2.80;;;2.10;;
21665;SDS011;10994;45.486;9.190;2022-11-20T14:37:54;3.57;;;2.23;;
21665;SDS011;10994;45.486;9.190;2022-11-20T14:40:26;3.50;;;2.50;;
21665;SDS011;10994;45.486;9.190;2022-11-20T14:42:52;2.40;;;1.73;;
21665;SDS011;10994;45.486;9.190;2022-11-20T14:45:18;2.50;;;2.10;;
21665;SDS011;10994;45.486;9.190;2022-11-20T14:47:44;4.23;;;2.20;;
21665;SDS011;10994;45.486;9.190;2022-11-20T14:50:21;4.10;;;1.97;;
21665;SDS011;10994;45.486;9.190;2022-11-20T14:55:28;3.43;;;2.33;;
21665;SDS011;10994;45.486;9.190;2022-11-20T14:57:56;6.77;;;2.43;;
21665;SDS011;10994;45.486;9.190;2022-11-20T15:00:25;4.30;;;2.50;;
21665;SDS011;10994;45.486;9.190;2022-11-20T15:02:51;5.93;;;2.60;;
21665;SDS011;10994;45.486;9.190;2022-11-20T15:05:19;3.80;;;2.60;;
21665;SDS011;10994;45.486;9.190;2022-11-20T15:07:48;5.73;;;3.63;;
21665;SDS011;10994;45.486;9.190;2022-11-20T15:15:32;4.17;;;2.77;;
21665;SDS011;10994;45.486;9.190;2022-11-20T15:18:04;6.20;;;2.80;;
21665;SDS011;10994;45.486;9.190;2022-11-20T15:20:31;4.33;;;2.70;;
21665;SDS011;10994;45.486;9.190;2022-11-20T15:22:58;10.60;;;3.97;;
21665;SDS011;10994;45.486;9.190;2022-11-20T15:25:24;4.93;;;3.07;;
21665;SDS011;10994;45.486;9.190;2022-11-20T15:27:51;6.53;;;3.33;;
21665;SDS011;10994;45.486;9.190;2022-11-20T15:30:22;20.63;;;4.37;;
21665;SDS011;10994;45.486;9.190;2022-11-20T15:32:48;10.37;;;3.03;;
21665;SDS011;10994;45.486;9.190;2022-11-20T15:35:15;13.20;;;3.37;;
21665;SDS011;10994;45.486;9.190;2022-11-20T15:37:41;7.17;;;4.17;;
21665;SDS011;10994;45.486;9.190;2022-11-20T15:40:07;4.43;;;2.70;;
21665;SDS011;10994;45.486;9.190;2022-11-20T15:42:33;5.23;;;2.70;;
21665;SDS011;10994;45.486;9.190;2022-11-20T15:44:59;7.80;;;2.70;;
21665;SDS011;10994;45.486;9.190;2022-11-20T15:47:26;4.83;;;2.97;;
21665;SDS011;10994;45.486;9.190;2022-11-20T15:49:55;7.40;;;2.97;;
21665;SDS011;10994;45.486;9.190;2022-11-20T15:52:21;9.13;;;2.80;;
21665;SDS011;10994;45.486;9.190;2022-11-20T15:54:46;7.80;;;2.87;;
21665;SDS011;10994;45.486;9.190;2022-11-20T15:57:12;5.87;;;2.97;;
21665;SDS011;10994;45.486;9.190;2022-11-20T15:59:38;6.87;;;3.20;;
21665;SDS011;10994;45.486;9.190;2022-11-20T16:02:12;3.67;;;3.17;;
21665;SDS011;10994;45.486;9.190;2022-11-20T16:04:39;9.53;;;3.00;;
21665;SDS011;10994;45.486;9.190;2022-11-20T16:07:05;6.97;;;3.90;;
21665;SDS011;10994;45.486;9.190;2022-11-20T16:09:31;8.97;;;4.30;;
21665;SDS011;10994;45.486;9.190;2022-11-20T16:11:56;6.07;;;3.40;;
21665;SDS011;10994;45.486;9.190;2022-11-20T16:14:25;6.17;;;4.10;;
21665;SDS011;10994;45.486;9.190;2022-11-20T16:17:10;13.43;;;4.07;;
21665;SDS011;10994;45.486;9.190;2022-11-20T16:19:37;10.37;;;3.77;;
21665;SDS011;10994;45.486;9.190;2022-11-20T16:22:03;11.73;;;4.00;;
21665;SDS011;10994;45.486;9.190;2022-11-20T16:24:29;10.57;;;4.70;;
21665;SDS011;10994;45.486;9.190;2022-11-20T16:26:55;10.20;;;3.80;;
21665;SDS011;10994;45.486;9.190;2022-11-20T16:29:22;17.07;;;5.47;;
21665;SDS011;10994;45.486;9.190;2022-11-20T16:31:47;8.60;;;3.63;;
21665;SDS011;10994;45.486;9.190;2022-11-20T16:34:14;7.10;;;3.83;;
21665;SDS011;10994;45.486;9.190;2022-11-20T16:36:41;6.07;;;3.77;;
21665;SDS011;10994;45.486;9.190;2022-11-20T16:39:10;10.00;;;4.17;;